createdAt,value
2023-02-27T00:02:13.714Z,2.65
2023-02-27T00:05:17.919Z,1.95
2023-02-27T00:07:51.343Z,1.48
2023-02-27T00:10:24.545Z,3.38
2023-02-27T00:12:57.096Z,2.65
2023-02-27T00:15:32.956Z,2.88
2023-02-27T00:18:05.611Z,3.20
2023-02-27T00:20:48.668Z,3.28
2023-02-27T00:27:50.004Z,1.73
2023-02-27T00:30:22.600Z,2.35
2023-02-27T00:34:08.981Z,2.20
2023-02-27T00:41:27.399Z,2.42
2023-02-27T00:48:57.044Z,2.25
2023-02-27T00:51:30.380Z,1.25
2023-02-27T00:54:03.803Z,2.75
2023-02-27T00:56:36.966Z,1.98
2023-02-27T00:59:09.702Z,2.13
2023-02-27T01:01:44.627Z,2.33
2023-02-27T01:04:17.184Z,2.95
2023-02-27T01:06:50.016Z,2.53
2023-02-27T01:09:22.724Z,3.00
2023-02-27T01:11:57.642Z,2.78
2023-02-27T01:14:30.319Z,3.33
2023-02-27T01:17:03.641Z,2.50
2023-02-27T01:19:36.315Z,1.00
2023-02-27T01:22:09.133Z,2.95
2023-02-27T01:25:07.954Z,2.30
2023-02-27T01:27:40.973Z,1.90
2023-02-27T01:30:15.814Z,2.22
2023-02-27T01:32:51.646Z,2.72
2023-02-27T01:40:23.198Z,2.58
2023-02-27T01:42:56.027Z,2.72
2023-02-27T01:45:28.688Z,3.42
2023-02-27T01:48:11.771Z,3.83
2023-02-27T01:51:03.688Z,1.83
2023-02-27T01:53:39.074Z,1.75
2023-02-27T01:56:41.744Z,3.38
2023-02-27T01:59:16.640Z,3.15
2023-02-27T02:01:49.977Z,3.10
2023-02-27T02:04:28.059Z,2.08
2023-02-27T02:07:03.529Z,2.17
2023-02-27T02:09:40.811Z,3.67
2023-02-27T02:12:15.938Z,3.90
2023-02-27T02:14:53.918Z,3.75
2023-02-27T02:17:41.467Z,2.88
2023-02-27T02:25:10.335Z,3.15
2023-02-27T02:39:59.774Z,1.88
2023-02-27T02:42:36.767Z,2.10
2023-02-27T02:45:39.618Z,1.90
2023-02-27T02:48:12.133Z,1.95
2023-02-27T02:55:26.747Z,3.50
2023-02-27T02:58:06.905Z,2.67
2023-02-27T03:00:52.890Z,2.38
2023-02-27T03:03:56.993Z,2.38
2023-02-27T03:06:40.496Z,2.20
2023-02-27T03:16:29.907Z,2.72
2023-02-27T03:27:14.154Z,2.20
2023-02-27T03:29:56.859Z,2.90
2023-02-27T03:32:32.766Z,1.58
2023-02-27T03:35:07.536Z,2.80
2023-02-27T03:43:03.952Z,2.58
2023-02-27T03:54:36.186Z,2.15
2023-02-27T03:57:09.456Z,2.35
2023-02-27T04:00:08.197Z,2.40
2023-02-27T04:03:08.160Z,1.25
2023-02-27T04:05:41.472Z,2.60
2023-02-27T04:08:29.540Z,2.50
2023-02-27T04:11:02.320Z,3.45
2023-02-27T04:14:10.078Z,2.22
2023-02-27T04:16:56.383Z,2.70
2023-02-27T04:19:31.442Z,2.47
2023-02-27T04:22:23.064Z,2.17
2023-02-27T04:25:13.423Z,2.30
2023-02-27T04:28:02.617Z,1.60
2023-02-27T04:35:46.767Z,1.95
2023-02-27T04:42:34.171Z,1.63
2023-02-27T04:45:11.870Z,1.58
2023-02-27T04:47:54.666Z,1.92
2023-02-27T04:50:47.778Z,2.00
2023-02-27T04:53:26.065Z,2.03
2023-02-27T04:56:10.035Z,1.52
2023-02-27T04:58:51.958Z,1.85
2023-02-27T05:01:56.925Z,2.40
2023-02-27T05:04:35.406Z,2.33
2023-02-27T05:07:11.613Z,1.50
2023-02-27T05:09:55.419Z,3.03
2023-02-27T05:12:42.914Z,2.20
2023-02-27T05:15:29.240Z,2.75
2023-02-27T05:18:06.205Z,1.45
2023-02-27T05:21:10.203Z,2.10
2023-02-27T05:24:05.384Z,3.05
2023-02-27T05:26:57.530Z,1.80
2023-02-27T05:30:12.916Z,2.58
2023-02-27T05:33:04.054Z,2.22
2023-02-27T05:40:08.453Z,1.88
2023-02-27T05:42:47.528Z,2.00
2023-02-27T05:45:30.056Z,2.08
2023-02-27T05:48:24.898Z,3.17
2023-02-27T05:50:59.151Z,2.35
2023-02-27T05:53:37.157Z,3.10
2023-02-27T05:56:14.545Z,2.55
2023-02-27T05:59:00.264Z,1.77
2023-02-27T06:01:51.859Z,2.38
2023-02-27T06:04:25.256Z,2.70
2023-02-27T06:07:00.152Z,2.28
2023-02-27T06:09:34.037Z,2.85
2023-02-27T06:12:06.728Z,1.77
2023-02-27T06:14:39.512Z,2.63
2023-02-27T06:17:12.005Z,2.97
2023-02-27T06:19:45.117Z,2.65
2023-02-27T06:22:17.665Z,3.47
2023-02-27T06:24:50.505Z,3.00
2023-02-27T06:27:28.691Z,2.53
2023-02-27T06:30:01.638Z,3.10
2023-02-27T06:32:34.248Z,3.17
2023-02-27T06:35:07.741Z,3.90
2023-02-27T06:37:40.436Z,2.90
2023-02-27T06:40:14.135Z,0.90
2023-02-27T06:42:46.704Z,2.60
2023-02-27T06:45:19.663Z,3.15
2023-02-27T06:47:52.235Z,3.30
2023-02-27T06:50:32.249Z,3.58
2023-02-27T06:53:05.084Z,3.10
2023-02-27T06:55:38.489Z,3.75
2023-02-27T06:58:11.016Z,1.58
2023-02-27T07:00:46.290Z,2.35
2023-02-27T07:03:18.930Z,2.35
2023-02-27T07:05:51.746Z,3.00
2023-02-27T07:08:24.639Z,4.00
2023-02-27T07:10:57.413Z,4.75
2023-02-27T07:13:29.994Z,4.63
2023-02-27T07:16:03.124Z,4.15
2023-02-27T07:18:38.849Z,3.88
2023-02-27T07:21:12.271Z,4.40
2023-02-27T07:23:45.118Z,3.63
2023-02-27T07:26:18.788Z,3.70
2023-02-27T07:28:51.413Z,2.55
2023-02-27T07:31:24.798Z,4.25
2023-02-27T07:34:00.758Z,4.20
2023-02-27T07:36:37.694Z,3.53
2023-02-27T07:39:13.712Z,4.40
2023-02-27T07:41:48.537Z,2.63
2023-02-27T07:44:21.042Z,3.58
2023-02-27T07:46:53.983Z,3.83
2023-02-27T07:49:26.645Z,3.38
2023-02-27T07:52:02.247Z,3.47
2023-02-27T07:54:37.683Z,3.50
2023-02-27T07:57:10.554Z,3.35
2023-02-27T07:59:43.037Z,1.58
2023-02-27T08:02:16.179Z,3.45
2023-02-27T08:04:48.729Z,2.80
2023-02-27T08:07:21.554Z,4.20
2023-02-27T08:09:54.073Z,2.75
2023-02-27T08:12:26.849Z,3.65
2023-02-27T08:14:59.400Z,3.45
2023-02-27T08:17:32.275Z,3.10
2023-02-27T08:20:05.696Z,3.42
2023-02-27T08:22:38.586Z,3.38
2023-02-27T08:25:11.512Z,3.42
2023-02-27T08:27:44.386Z,3.35
2023-02-27T08:30:17.141Z,2.97
2023-02-27T08:32:50.097Z,2.75
2023-02-27T08:35:23.368Z,2.75
2023-02-27T08:37:56.378Z,2.80
2023-02-27T08:40:28.966Z,2.85
2023-02-27T08:43:01.888Z,2.53
2023-02-27T08:45:34.531Z,3.25
2023-02-27T08:48:07.797Z,3.40
2023-02-27T08:50:40.307Z,3.15
2023-02-27T08:53:13.817Z,4.05
2023-02-27T08:55:51.200Z,3.05
2023-02-27T08:58:24.049Z,3.10
2023-02-27T09:00:56.600Z,3.42
2023-02-27T09:03:29.757Z,3.75
2023-02-27T09:06:02.337Z,2.95
2023-02-27T09:08:35.190Z,3.20
2023-02-27T09:11:07.788Z,3.13
2023-02-27T09:13:40.634Z,3.30
2023-02-27T09:16:13.710Z,3.53
2023-02-27T09:18:47.225Z,3.30
2023-02-27T09:21:20.674Z,3.95
2023-02-27T09:23:53.486Z,2.35
2023-02-27T09:26:40.769Z,1.85
2023-02-27T09:29:18.320Z,4.00
2023-02-27T09:31:51.183Z,3.15
2023-02-27T09:34:24.085Z,3.88
2023-02-27T09:37:02.501Z,3.55
2023-02-27T09:39:36.330Z,4.07
2023-02-27T09:42:28.443Z,2.72
2023-02-27T09:45:07.588Z,3.03
2023-02-27T09:47:48.104Z,2.63
2023-02-27T09:50:38.769Z,2.38
2023-02-27T09:56:32.556Z,1.88
2023-02-27T09:59:19.938Z,1.92
2023-02-27T10:02:06.346Z,2.50
2023-02-27T10:04:47.826Z,3.10
2023-02-27T10:07:40.481Z,2.78
2023-02-27T10:10:29.323Z,2.38
2023-02-27T10:15:55.491Z,2.33
2023-02-27T10:18:36.473Z,1.60
2023-02-27T10:24:29.886Z,1.70
2023-02-27T10:27:05.775Z,1.80
2023-02-27T10:29:42.523Z,2.30
2023-02-27T10:32:32.788Z,1.50
2023-02-27T10:35:20.769Z,2.13
2023-02-27T10:37:59.394Z,2.30
2023-02-27T10:40:36.332Z,1.67
2023-02-27T10:43:08.931Z,1.67
2023-02-27T10:45:43.935Z,2.10
2023-02-27T10:48:17.200Z,1.45
2023-02-27T10:50:53.693Z,2.30
2023-02-27T10:53:28.064Z,1.23
2023-02-27T10:56:07.185Z,1.55
2023-02-27T10:58:39.816Z,1.48
2023-02-27T11:01:13.354Z,1.00
2023-02-27T11:03:45.976Z,1.75
2023-02-27T11:06:25.302Z,1.65
2023-02-27T11:09:33.127Z,1.67
2023-02-27T11:12:26.808Z,1.65
2023-02-27T11:15:25.815Z,1.52
2023-02-27T11:18:19.840Z,0.90
2023-02-27T11:20:52.857Z,1.25
2023-02-27T11:23:26.056Z,1.33
2023-02-27T11:26:11.399Z,0.73
2023-02-27T11:28:44.292Z,1.33
2023-02-27T11:31:22.711Z,1.00
2023-02-27T11:33:57.491Z,1.30
2023-02-27T11:36:45.717Z,1.10
2023-02-27T11:39:40.312Z,1.25
2023-02-27T11:42:23.397Z,1.40
2023-02-27T11:45:01.357Z,1.80
2023-02-27T11:47:38.828Z,1.90
2023-02-27T11:50:34.301Z,1.48
2023-02-27T11:53:18.920Z,1.45
2023-02-27T11:55:59.134Z,1.63
2023-02-27T11:58:41.057Z,2.15
2023-02-27T12:01:43.086Z,2.03
2023-02-27T12:04:33.729Z,2.67
2023-02-27T12:07:23.182Z,2.08
2023-02-27T12:10:21.709Z,1.65
2023-02-27T12:13:12.010Z,2.03
2023-02-27T12:16:24.437Z,1.30
2023-02-27T12:19:11.046Z,1.58
2023-02-27T12:21:49.564Z,1.80
2023-02-27T12:24:48.300Z,1.40
2023-02-27T12:27:53.583Z,1.10
2023-02-27T12:30:29.393Z,1.23
2023-02-27T12:33:08.642Z,1.23
2023-02-27T12:35:44.563Z,1.60
2023-02-27T12:38:18.515Z,1.60
2023-02-27T12:41:12.458Z,2.05
2023-02-27T12:43:57.376Z,1.85
2023-02-27T12:47:02.044Z,1.50
2023-02-27T12:50:00.557Z,1.65
2023-02-27T12:52:42.224Z,2.17
2023-02-27T12:55:27.868Z,1.95
2023-02-27T12:58:22.649Z,1.92
2023-02-27T13:01:27.976Z,1.63
2023-02-27T13:04:09.277Z,1.55
2023-02-27T13:06:44.642Z,1.95
2023-02-27T13:09:41.086Z,1.33
2023-02-27T13:12:29.761Z,0.70
2023-02-27T13:15:16.946Z,1.50
2023-02-27T13:17:54.923Z,1.40
2023-02-27T13:21:03.446Z,2.13
2023-02-27T13:23:53.186Z,1.92
2023-02-27T13:26:48.778Z,2.50
2023-02-27T13:29:23.296Z,2.80
2023-02-27T13:32:07.463Z,2.00
2023-02-27T13:34:48.230Z,1.30
2023-02-27T13:37:21.254Z,1.58
2023-02-27T13:40:01.435Z,2.25
2023-02-27T13:42:34.384Z,1.13
2023-02-27T13:45:45.377Z,1.88
2023-02-27T13:48:44.060Z,1.80
2023-02-27T13:51:35.306Z,2.08
2023-02-27T13:54:43.181Z,2.03
2023-02-27T13:57:27.470Z,1.35
2023-02-27T14:00:07.440Z,1.55
2023-02-27T14:02:59.794Z,1.40
2023-02-27T14:05:42.484Z,1.58
2023-02-27T14:08:27.187Z,0.80
2023-02-27T14:11:22.997Z,1.40
2023-02-27T14:13:57.691Z,1.73
2023-02-27T14:16:42.309Z,1.65
2023-02-27T14:19:22.521Z,1.90
2023-02-27T14:22:01.621Z,1.75
2023-02-27T14:25:05.389Z,1.65
2023-02-27T14:27:43.600Z,1.50
2023-02-27T14:30:51.965Z,1.20
2023-02-27T14:33:39.604Z,1.52
2023-02-27T14:36:20.827Z,2.13
2023-02-27T14:41:59.994Z,2.17
2023-02-27T14:44:43.781Z,1.52
2023-02-27T14:47:28.675Z,1.90
2023-02-27T14:50:04.153Z,2.75
2023-02-27T14:52:46.886Z,2.50
2023-02-27T14:55:31.478Z,2.15
2023-02-27T14:58:15.642Z,1.60
2023-02-27T15:01:09.537Z,2.03
2023-02-27T15:03:52.840Z,2.28
2023-02-27T15:06:36.886Z,1.52
2023-02-27T15:09:37.748Z,1.83
2023-02-27T15:12:19.766Z,2.00
2023-02-27T15:15:01.608Z,2.20
2023-02-27T15:17:43.977Z,2.55
2023-02-27T15:20:31.570Z,2.55
2023-02-27T15:23:39.713Z,2.50
2023-02-27T15:26:14.445Z,2.90
2023-02-27T15:28:49.462Z,2.45
2023-02-27T15:31:24.161Z,3.42
2023-02-27T15:33:58.754Z,4.05
2023-02-27T15:36:34.001Z,4.20
2023-02-27T15:39:06.799Z,3.22
2023-02-27T15:41:39.461Z,1.85
2023-02-27T15:44:14.180Z,3.05
2023-02-27T15:46:47.706Z,2.80
2023-02-27T15:49:23.622Z,2.60
2023-02-27T15:52:15.555Z,2.78
2023-02-27T15:55:15.949Z,1.92
2023-02-27T15:58:01.972Z,2.75
2023-02-27T16:00:35.928Z,1.88
2023-02-27T16:03:09.894Z,3.42
2023-02-27T16:05:43.029Z,4.18
2023-02-27T16:08:19.074Z,2.22
2023-02-27T16:10:53.012Z,3.65
2023-02-27T16:13:35.115Z,3.53
2023-02-27T16:16:23.496Z,3.85
2023-02-27T16:18:58.664Z,3.35
2023-02-27T16:21:31.564Z,4.00
2023-02-27T16:24:21.097Z,4.13
2023-02-27T16:26:54.052Z,4.22
2023-02-27T16:29:35.652Z,4.55
2023-02-27T16:32:24.536Z,4.60
2023-02-27T16:35:03.850Z,2.83
2023-02-27T16:37:41.503Z,3.67
2023-02-27T16:40:25.895Z,2.80
2023-02-27T16:42:59.184Z,3.25
2023-02-27T16:45:32.051Z,2.90
2023-02-27T16:48:05.590Z,2.53
2023-02-27T16:50:43.006Z,2.47
2023-02-27T16:53:18.018Z,3.17
2023-02-27T16:55:50.756Z,2.53
2023-02-27T16:58:23.799Z,4.00
2023-02-27T17:00:56.519Z,1.95
2023-02-27T17:03:29.541Z,3.15
2023-02-27T17:06:03.686Z,3.00
2023-02-27T17:08:36.727Z,4.38
2023-02-27T17:11:09.801Z,3.60
2023-02-27T17:13:45.393Z,3.28
2023-02-27T17:16:18.321Z,5.75
2023-02-27T17:18:51.347Z,5.03
2023-02-27T17:21:23.886Z,5.80
2023-02-27T17:23:56.683Z,6.78
2023-02-27T17:26:29.667Z,6.57
2023-02-27T17:29:03.476Z,8.02
2023-02-27T17:31:37.099Z,6.97
2023-02-27T17:34:09.937Z,8.63
2023-02-27T17:36:43.274Z,9.80
2023-02-27T17:39:16.612Z,12.75
2023-02-27T17:41:49.251Z,13.43
2023-02-27T17:44:23.065Z,8.93
2023-02-27T17:46:55.716Z,10.77
2023-02-27T17:49:28.739Z,10.75
2023-02-27T17:52:01.444Z,10.13
2023-02-27T17:54:35.756Z,9.10
2023-02-27T17:57:10.481Z,6.55
2023-02-27T17:59:46.450Z,9.10
2023-02-27T18:02:19.422Z,10.18
2023-02-27T18:04:53.203Z,9.65
2023-02-27T18:07:25.936Z,10.02
2023-02-27T18:09:58.931Z,10.48
2023-02-27T18:12:31.967Z,10.93
2023-02-27T18:15:06.004Z,12.43
2023-02-27T18:17:38.748Z,16.25
2023-02-27T18:20:12.267Z,14.63
2023-02-27T18:22:44.868Z,13.40
2023-02-27T18:25:18.767Z,11.60
2023-02-27T18:27:51.394Z,16.45
2023-02-27T18:30:24.824Z,14.60
2023-02-27T18:32:58.369Z,17.88
2023-02-27T18:35:31.444Z,11.18
2023-02-27T18:38:04.246Z,12.02
2023-02-27T18:40:37.178Z,9.38
2023-02-27T18:43:11.593Z,8.65
2023-02-27T18:45:45.681Z,9.60
2023-02-27T18:48:18.412Z,8.25
2023-02-27T18:50:51.371Z,9.02
2023-02-27T18:53:23.936Z,10.43
2023-02-27T18:56:01.243Z,11.85
2023-02-27T18:58:34.833Z,10.32
2023-02-27T19:01:08.090Z,12.07
2023-02-27T19:03:40.853Z,11.85
2023-02-27T19:06:13.827Z,10.27
2023-02-27T19:08:46.780Z,12.73
2023-02-27T20:13:09.322Z,7.50
2023-02-27T20:15:59.084Z,9.43
2023-02-27T20:21:14.525Z,9.73
2023-02-27T20:23:47.770Z,10.25
2023-02-27T20:26:26.883Z,9.27
2023-02-27T20:29:08.684Z,10.27
2023-02-27T20:31:44.003Z,10.18
2023-02-27T20:34:22.030Z,7.40
2023-02-27T20:36:56.361Z,9.63
2023-02-27T20:39:29.070Z,11.57
2023-02-27T20:42:02.107Z,11.77
2023-02-27T20:44:34.831Z,10.27
2023-02-27T20:47:09.063Z,9.15
2023-02-27T20:49:41.650Z,11.27
2023-02-27T20:52:14.465Z,11.48
2023-02-27T20:54:46.999Z,11.93
2023-02-27T20:57:19.742Z,11.90
2023-02-27T20:59:52.274Z,9.48
2023-02-27T21:02:25.149Z,11.13
2023-02-27T21:04:58.384Z,12.13
2023-02-27T21:07:31.273Z,13.13
2023-02-27T21:10:03.959Z,11.10
2023-02-27T21:12:36.863Z,7.70
2023-02-27T21:15:09.727Z,13.70
2023-02-27T21:17:42.584Z,12.77
2023-02-27T21:20:15.156Z,9.05
2023-02-27T21:22:48.318Z,13.88
2023-02-27T21:25:20.806Z,14.05
2023-02-27T21:27:55.724Z,14.23
2023-02-27T21:30:31.434Z,12.73
2023-02-27T21:33:04.636Z,11.70
2023-02-27T21:35:38.186Z,13.48
2023-02-27T21:38:11.383Z,12.68
2023-02-27T21:40:43.999Z,10.25
2023-02-27T21:43:16.922Z,9.20
2023-02-27T21:45:51.750Z,9.77
2023-02-27T21:48:24.543Z,10.75
2023-02-27T21:51:00.723Z,9.30
2023-02-27T21:53:33.985Z,6.15
2023-02-27T21:56:09.205Z,8.93
2023-02-27T21:58:42.097Z,10.25
2023-02-27T22:01:17.091Z,10.15
2023-02-27T22:03:52.508Z,8.32
2023-02-27T22:06:27.284Z,9.13
2023-02-27T22:09:04.894Z,10.32
2023-02-27T22:11:37.467Z,10.20
2023-02-27T22:14:11.442Z,10.30
2023-02-27T22:16:44.017Z,11.90
2023-02-27T22:19:22.621Z,14.00
2023-02-27T22:21:55.132Z,11.68
2023-02-27T22:24:28.410Z,14.65
2023-02-27T22:27:01.108Z,12.63
2023-02-27T22:29:33.970Z,12.45
2023-02-27T22:32:07.078Z,12.40
2023-02-27T22:34:39.860Z,9.32
2023-02-27T22:37:13.784Z,9.75
2023-02-27T22:39:46.849Z,10.63
2023-02-27T22:42:19.314Z,9.40
2023-02-27T22:44:52.127Z,10.20
2023-02-27T22:47:24.632Z,9.35
2023-02-27T22:49:57.381Z,7.88
2023-02-27T22:52:30.329Z,8.93
2023-02-27T22:55:03.644Z,9.73
2023-02-27T22:57:36.145Z,6.13
2023-02-27T23:00:11.687Z,7.65
2023-02-27T23:02:44.264Z,7.30
2023-02-27T23:05:17.180Z,8.23
2023-02-27T23:07:49.675Z,7.85
2023-02-27T23:10:22.467Z,8.82
2023-02-27T23:12:54.932Z,6.95
2023-02-27T23:15:27.716Z,8.00
2023-02-27T23:18:00.328Z,7.85
2023-02-27T23:20:37.360Z,7.72
2023-02-27T23:23:09.930Z,6.45
2023-02-27T23:25:43.440Z,7.07
2023-02-27T23:28:16.422Z,8.13
2023-02-27T23:30:49.505Z,8.55
2023-02-27T23:33:22.212Z,8.23
2023-02-27T23:35:55.808Z,7.82
2023-02-27T23:38:29.186Z,7.72
2023-02-27T23:41:09.583Z,9.80
2023-02-27T23:44:01.030Z,12.18
2023-02-27T23:46:34.007Z,15.27
2023-02-27T23:49:06.640Z,15.45
2023-02-27T23:51:39.643Z,16.55
2023-02-27T23:54:12.317Z,16.08
2023-02-27T23:56:47.092Z,25.50
2023-02-27T23:59:19.866Z,23.02
